createdAt,value
2022-10-12T00:00:40.891Z,11.18
2022-10-12T00:01:51.038Z,11.17
2022-10-12T00:03:02.108Z,11.16
2022-10-12T00:05:26.678Z,11.26
2022-10-12T00:06:36.017Z,11.16
2022-10-12T00:07:45.321Z,11.16
2022-10-12T00:08:55.525Z,11.15
2022-10-12T00:11:27.841Z,11.28
2022-10-12T00:13:54.088Z,11.24
2022-10-12T00:15:05.634Z,11.14
2022-10-12T00:17:32.477Z,11.30
2022-10-12T00:19:57.014Z,11.33
2022-10-12T00:22:30.106Z,11.35
2022-10-12T00:23:40.840Z,11.27
2022-10-12T00:24:50.686Z,11.20
2022-10-12T00:27:24.258Z,11.35
2022-10-12T00:28:34.510Z,11.28
2022-10-12T00:29:44.269Z,11.29
2022-10-12T00:32:11.012Z,11.42
2022-10-12T00:33:21.701Z,11.32
2022-10-12T00:35:45.608Z,11.43
2022-10-12T00:36:58.186Z,11.35
2022-10-12T00:39:22.333Z,11.48
2022-10-12T00:41:47.113Z,11.51
2022-10-12T00:42:56.309Z,11.40
2022-10-12T00:45:41.812Z,11.50
2022-10-12T00:48:09.366Z,11.45
2022-10-12T00:50:39.079Z,11.46
2022-10-12T00:53:12.477Z,11.48
2022-10-12T00:55:52.867Z,11.47
2022-10-12T00:57:06.429Z,11.35
2022-10-12T00:59:35.042Z,11.45
2022-10-12T01:00:44.593Z,11.34
2022-10-12T01:01:54.161Z,11.35
2022-10-12T01:03:04.432Z,11.34
2022-10-12T01:04:15.739Z,11.35
2022-10-12T01:06:42.165Z,11.42
2022-10-12T01:09:29.023Z,11.35
2022-10-12T01:12:12.810Z,11.34
2022-10-12T01:13:22.694Z,11.22
2022-10-12T01:15:57.465Z,11.34
2022-10-12T01:19:15.808Z,11.35
2022-10-12T01:22:10.572Z,11.38
2022-10-12T01:24:57.585Z,11.36
2022-10-12T01:26:38.709Z,11.24
2022-10-12T01:29:33.672Z,11.30
2022-10-12T01:32:12.104Z,11.32
2022-10-12T01:35:05.264Z,11.33
2022-10-12T01:39:27.745Z,11.32
2022-10-12T01:42:03.055Z,11.28
2022-10-12T01:43:13.723Z,11.16
2022-10-12T01:45:41.067Z,11.24
2022-10-12T01:46:51.689Z,11.13
2022-10-12T01:49:22.150Z,11.25
2022-10-12T01:52:12.490Z,11.23
2022-10-12T01:53:29.920Z,11.13
2022-10-12T01:56:08.603Z,11.18
2022-10-12T01:58:56.840Z,11.19
2022-10-12T02:00:12.086Z,11.03
2022-10-12T02:02:57.414Z,11.13
2022-10-12T02:05:45.288Z,11.10
2022-10-12T02:08:32.299Z,11.07
2022-10-12T02:11:14.223Z,11.07
2022-10-12T02:15:18.280Z,11.04
2022-10-12T02:16:33.860Z,10.97
2022-10-12T02:19:06.534Z,11.07
2022-10-12T02:21:35.193Z,11.08
2022-10-12T02:24:07.257Z,11.01
2022-10-12T02:26:39.884Z,10.96
2022-10-12T02:29:12.358Z,10.94
2022-10-12T02:30:22.725Z,10.86
2022-10-12T02:33:07.429Z,10.95
2022-10-12T02:35:43.078Z,10.97
2022-10-12T02:38:24.182Z,10.96
2022-10-12T02:40:58.698Z,10.89
2022-10-12T02:44:57.993Z,10.92
2022-10-12T02:46:11.250Z,10.83
2022-10-12T02:48:41.609Z,10.91
2022-10-12T02:51:11.332Z,10.91
2022-10-12T02:53:37.714Z,10.93
2022-10-12T02:56:09.794Z,10.89
2022-10-12T02:58:35.071Z,10.90
2022-10-12T02:59:44.367Z,10.79
2022-10-12T03:02:10.518Z,10.89
2022-10-12T03:04:37.272Z,10.86
2022-10-12T03:07:01.946Z,10.87
2022-10-12T03:09:27.008Z,10.86
2022-10-12T03:11:51.843Z,10.85
2022-10-12T03:14:17.486Z,10.86
2022-10-12T03:16:44.708Z,10.83
2022-10-12T03:19:09.981Z,10.83
2022-10-12T03:21:37.057Z,10.79
2022-10-12T03:24:02.625Z,10.81
2022-10-12T03:26:28.899Z,10.81
2022-10-12T03:28:53.805Z,10.83
2022-10-12T03:31:20.884Z,10.81
2022-10-12T03:33:45.634Z,10.77
2022-10-12T03:34:54.773Z,10.67
2022-10-12T03:36:05.015Z,10.70
2022-10-12T03:37:14.744Z,10.68
2022-10-12T03:38:23.864Z,10.68
2022-10-12T03:39:33.700Z,10.69
2022-10-12T03:41:58.062Z,10.81
2022-10-12T03:44:22.827Z,10.82
2022-10-12T03:46:46.975Z,10.80
2022-10-12T03:49:12.558Z,10.81
2022-10-12T03:51:39.087Z,10.81
2022-10-12T03:54:03.544Z,10.82
2022-10-12T03:56:29.229Z,10.74
2022-10-12T03:57:38.248Z,10.64
2022-10-12T03:58:47.596Z,10.62
2022-10-12T04:01:12.375Z,10.67
2022-10-12T04:02:21.149Z,10.54
2022-10-12T04:03:30.727Z,10.52
2022-10-12T04:04:40.367Z,10.51
2022-10-12T04:05:57.826Z,10.51
2022-10-12T04:08:28.996Z,10.61
2022-10-12T04:09:39.178Z,10.52
2022-10-12T04:10:52.205Z,10.50
2022-10-12T04:12:01.549Z,10.52
2022-10-12T04:13:11.168Z,10.53
2022-10-12T04:14:20.937Z,10.53
2022-10-12T04:16:45.830Z,10.63
2022-10-12T04:17:55.861Z,10.51
2022-10-12T04:20:20.437Z,10.57
2022-10-12T04:22:47.480Z,10.58
2022-10-12T04:25:12.506Z,10.58
2022-10-12T04:27:37.696Z,10.57
2022-10-12T04:30:05.029Z,10.57
2022-10-12T04:32:28.637Z,10.62
2022-10-12T04:34:53.250Z,10.72
2022-10-12T04:37:18.994Z,10.95
2022-10-12T04:39:44.317Z,11.24
2022-10-12T04:40:54.370Z,11.25
2022-10-12T04:43:21.723Z,11.64
2022-10-12T04:45:55.675Z,12.00
2022-10-12T04:48:22.510Z,12.37
2022-10-12T04:49:32.248Z,12.48
2022-10-12T04:50:42.006Z,12.70
2022-10-12T04:51:51.760Z,12.91
2022-10-12T04:54:16.242Z,13.47
2022-10-12T04:56:42.124Z,13.89
2022-10-12T04:59:05.445Z,14.31
2022-10-12T05:01:32.572Z,14.64
2022-10-12T05:04:00.081Z,14.99
2022-10-12T05:06:25.731Z,15.38
2022-10-12T05:08:49.873Z,15.67
2022-10-12T05:09:58.653Z,15.62
2022-10-12T05:11:08.840Z,15.59
2022-10-12T05:13:33.659Z,15.93
2022-10-12T05:16:00.111Z,16.06
2022-10-12T05:18:24.392Z,16.14
2022-10-12T05:20:48.055Z,16.01
2022-10-12T05:21:57.781Z,15.92
2022-10-12T05:23:06.785Z,15.83
2022-10-12T05:24:16.440Z,15.76
2022-10-12T05:25:25.298Z,15.69
2022-10-12T05:26:35.492Z,15.47
2022-10-12T05:27:44.231Z,15.42
2022-10-12T05:28:52.852Z,15.37
2022-10-12T05:31:19.841Z,15.45
2022-10-12T05:33:43.447Z,15.40
2022-10-12T05:36:08.386Z,15.41
2022-10-12T05:38:32.996Z,15.39
2022-10-12T05:39:42.301Z,15.27
2022-10-12T05:40:56.397Z,15.27
2022-10-12T05:43:22.821Z,15.48
2022-10-12T05:44:31.784Z,15.20
2022-10-12T05:45:40.503Z,15.25
2022-10-12T05:46:50.309Z,15.27
2022-10-12T08:44:34.028Z,14.35
2022-10-12T08:45:55.273Z,14.29
2022-10-12T08:47:10.911Z,14.33
2022-10-12T08:49:49.949Z,14.56
2022-10-12T08:51:05.550Z,14.49
2022-10-12T08:54:04.182Z,14.76
2022-10-12T08:56:41.467Z,14.79
2022-10-12T08:57:50.332Z,14.70
2022-10-12T08:59:02.088Z,14.67
2022-10-12T09:01:40.013Z,14.87
2022-10-12T09:03:21.790Z,14.82
2022-10-12T09:04:55.841Z,14.87
2022-10-12T09:07:33.647Z,15.02
2022-10-12T09:11:51.907Z,15.06
2022-10-12T09:14:38.704Z,14.96
2022-10-12T09:15:52.877Z,14.89
2022-10-12T09:17:06.303Z,14.90
2022-10-12T09:21:22.077Z,15.04
2022-10-12T09:23:49.897Z,15.03
2022-10-12T09:26:21.197Z,15.04
2022-10-12T09:28:50.766Z,15.03
2022-10-12T09:31:54.375Z,15.12
2022-10-12T09:34:25.786Z,15.14
2022-10-12T09:36:55.161Z,15.14
2022-10-12T09:39:28.979Z,15.16
2022-10-12T09:40:35.584Z,15.02
2022-10-12T09:41:49.615Z,15.00
2022-10-12T09:46:01.876Z,15.25
2022-10-12T09:47:30.871Z,15.15
2022-10-12T09:50:07.848Z,15.25
2022-10-12T09:51:18.336Z,15.17
2022-10-12T09:52:35.381Z,15.20
2022-10-12T09:55:10.434Z,15.34
2022-10-12T09:58:00.732Z,15.34
2022-10-12T09:59:43.646Z,15.33
2022-10-12T10:02:31.052Z,15.59
2022-10-12T10:03:40.919Z,15.50
2022-10-12T10:06:07.214Z,15.65
2022-10-12T10:07:29.113Z,15.54
2022-10-12T10:10:12.154Z,15.69
2022-10-12T10:12:54.886Z,15.58
2022-10-12T10:15:22.836Z,15.65
2022-10-12T10:16:32.257Z,15.50
2022-10-12T10:17:41.811Z,15.49
2022-10-12T10:20:17.060Z,15.54
2022-10-12T10:21:36.111Z,15.43
2022-10-12T10:22:48.425Z,15.43
2022-10-12T10:24:03.436Z,15.45
2022-10-12T10:26:52.993Z,15.54
2022-10-12T10:28:22.451Z,15.44
2022-10-12T10:29:40.035Z,15.44
2022-10-12T10:32:26.194Z,15.59
2022-10-12T10:36:27.582Z,15.56
2022-10-12T10:37:36.417Z,15.40
2022-10-12T10:40:29.730Z,15.46
2022-10-12T10:41:41.473Z,15.32
2022-10-12T10:42:56.936Z,15.39
2022-10-12T10:48:19.988Z,15.53
2022-10-12T10:51:08.436Z,15.55
2022-10-12T10:52:26.305Z,15.42
2022-10-12T10:53:48.206Z,15.34
2022-10-12T10:55:13.783Z,15.36
2022-10-12T10:56:28.435Z,15.34
2022-10-12T10:57:40.772Z,15.32
2022-10-12T10:59:00.287Z,15.35
2022-10-12T11:01:42.195Z,15.48
2022-10-12T11:04:22.972Z,15.45
2022-10-12T11:05:38.924Z,15.37
2022-10-12T11:08:20.385Z,15.51
2022-10-12T11:11:01.782Z,15.45
2022-10-12T11:13:41.445Z,15.41
2022-10-12T11:16:19.118Z,15.45
2022-10-12T11:19:00.555Z,15.45
2022-10-12T11:22:03.099Z,15.48
2022-10-12T11:26:00.880Z,15.52
2022-10-12T11:28:41.590Z,15.48
2022-10-12T11:30:08.426Z,15.44
2022-10-12T11:33:56.173Z,15.55
2022-10-12T11:36:26.079Z,15.57
2022-10-12T11:39:07.059Z,15.62
2022-10-12T11:42:16.495Z,15.73
2022-10-12T11:44:42.304Z,15.77
2022-10-12T11:47:30.185Z,15.88
2022-10-12T11:50:37.377Z,15.84
2022-10-12T11:53:08.831Z,15.78
2022-10-12T11:55:46.376Z,15.73
2022-10-12T12:01:23.181Z,15.72
2022-10-12T12:04:36.569Z,15.74
2022-10-12T12:06:54.023Z,15.73
2022-10-12T12:08:02.666Z,15.57
2022-10-12T12:10:43.486Z,15.67
2022-10-12T12:11:55.846Z,15.59
2022-10-12T12:13:15.229Z,15.60
2022-10-12T12:14:30.977Z,15.56
2022-10-12T12:17:19.482Z,15.71
2022-10-12T12:19:58.406Z,15.69
2022-10-12T12:22:34.362Z,15.73
2022-10-12T12:23:53.307Z,15.61
2022-10-12T12:26:31.037Z,15.83
2022-10-12T12:29:11.020Z,15.89
2022-10-12T12:31:42.685Z,15.85
2022-10-12T12:34:17.446Z,15.74
2022-10-12T12:36:52.206Z,15.68
2022-10-12T12:39:32.169Z,15.61
2022-10-12T12:42:03.942Z,15.64
2022-10-12T12:43:23.346Z,15.50
2022-10-12T12:44:41.182Z,15.44
2022-10-12T12:46:01.610Z,15.32
2022-10-12T12:48:44.864Z,15.45
2022-10-12T12:51:25.367Z,15.31
2022-10-12T12:52:39.984Z,15.19
2022-10-12T12:54:02.337Z,15.23
2022-10-12T12:55:17.640Z,15.27
2022-10-12T12:58:07.553Z,15.35
2022-10-12T13:00:40.097Z,15.33
2022-10-12T13:03:42.809Z,15.34
2022-10-12T13:06:50.762Z,15.38
2022-10-12T13:09:34.199Z,15.44
2022-10-12T13:12:53.802Z,15.38
2022-10-12T13:16:05.299Z,15.46
2022-10-12T13:17:33.716Z,15.36
2022-10-12T13:20:21.187Z,15.44
2022-10-12T13:22:52.653Z,15.45
2022-10-12T13:25:42.044Z,15.49
2022-10-12T13:28:22.586Z,15.48
2022-10-12T13:29:50.845Z,15.32
2022-10-12T13:32:42.994Z,15.46
2022-10-12T13:35:46.020Z,15.46
2022-10-12T13:38:27.415Z,15.42
2022-10-12T13:41:07.157Z,15.40
2022-10-12T13:43:54.250Z,15.37
2022-10-12T13:45:08.615Z,15.27
2022-10-12T13:48:05.549Z,15.34
2022-10-12T13:50:42.695Z,15.37
2022-10-12T13:51:58.295Z,15.25
2022-10-12T13:54:33.717Z,15.33
2022-10-12T13:55:42.937Z,15.26
2022-10-12T13:58:30.591Z,15.39
2022-10-12T14:00:55.936Z,15.41
2022-10-12T14:03:28.179Z,15.39
2022-10-12T14:05:56.257Z,15.34
2022-10-12T14:07:08.367Z,15.24
2022-10-12T14:09:43.383Z,15.34
2022-10-12T14:12:11.610Z,15.34
2022-10-12T14:14:47.005Z,15.32
2022-10-12T14:15:58.008Z,15.21
2022-10-12T14:18:43.027Z,15.31
2022-10-12T14:22:47.756Z,15.29
2022-10-12T14:25:22.020Z,15.28
2022-10-12T14:26:39.967Z,15.16
2022-10-12T14:27:58.517Z,15.14
2022-10-12T14:29:27.518Z,15.13
2022-10-12T14:32:07.024Z,15.22
2022-10-12T14:33:20.574Z,15.10
2022-10-12T14:36:21.805Z,15.14
2022-10-12T14:37:38.163Z,15.02
2022-10-12T14:38:49.200Z,15.02
2022-10-12T14:40:04.225Z,15.03
2022-10-12T14:41:35.012Z,15.00
2022-10-12T14:44:20.578Z,15.06
2022-10-12T14:45:31.574Z,14.93
2022-10-12T14:48:23.086Z,14.98
2022-10-12T14:49:42.252Z,14.88
2022-10-12T14:50:52.591Z,14.86
2022-10-12T14:52:02.786Z,14.82
2022-10-12T14:53:15.215Z,14.79
2022-10-12T14:54:25.035Z,14.77
2022-10-12T14:55:34.397Z,14.77
2022-10-12T14:56:43.136Z,14.76
2022-10-12T14:57:52.007Z,14.77
2022-10-12T14:59:01.179Z,14.76
2022-10-12T15:00:23.619Z,14.74
2022-10-12T15:02:49.118Z,14.84
2022-10-12T15:05:17.713Z,14.80
2022-10-12T15:06:26.460Z,14.70
2022-10-12T15:08:51.997Z,14.81
2022-10-12T15:10:02.160Z,14.67
2022-10-12T15:11:14.971Z,14.68
2022-10-12T15:13:40.617Z,14.74
2022-10-12T15:14:51.369Z,14.63
2022-10-12T15:16:01.130Z,14.62
2022-10-12T15:17:15.107Z,14.62
2022-10-12T15:18:24.087Z,14.59
2022-10-12T15:20:49.631Z,14.62
2022-10-12T15:21:59.658Z,14.48
2022-10-12T15:23:10.610Z,14.47
2022-10-12T15:24:19.761Z,14.46
2022-10-12T15:27:01.959Z,14.54
2022-10-12T15:28:11.934Z,14.43
2022-10-12T15:29:20.867Z,14.42
2022-10-12T15:30:30.333Z,14.40
2022-10-12T15:31:38.936Z,14.39
2022-10-12T15:32:49.325Z,14.38
2022-10-12T15:35:22.372Z,14.47
2022-10-12T15:37:50.098Z,14.40
2022-10-12T15:38:58.773Z,14.30
2022-10-12T15:41:27.271Z,14.43
2022-10-12T15:42:37.900Z,14.32
2022-10-12T15:45:01.605Z,14.41
2022-10-12T15:47:28.213Z,14.41
2022-10-12T15:49:54.519Z,14.41
2022-10-12T15:51:08.436Z,14.28
2022-10-12T15:52:17.470Z,14.27
2022-10-12T15:53:27.632Z,14.26
2022-10-12T15:54:36.749Z,14.23
2022-10-12T15:57:00.944Z,14.28
2022-10-12T15:58:11.292Z,14.17
2022-10-12T16:00:34.822Z,14.22
2022-10-12T16:01:44.505Z,14.10
2022-10-12T16:04:15.099Z,14.17
2022-10-12T16:06:43.336Z,14.15
2022-10-12T16:07:53.544Z,14.02
2022-10-12T16:09:02.514Z,14.00
2022-10-12T16:10:15.086Z,13.98
2022-10-12T16:12:39.792Z,14.02
2022-10-12T16:13:55.484Z,13.90
2022-10-12T16:15:01.862Z,13.90
2022-10-12T16:16:11.588Z,13.89
2022-10-12T16:17:20.200Z,13.88
2022-10-12T16:19:45.909Z,14.01
2022-10-12T16:20:54.453Z,13.89
2022-10-12T16:22:05.772Z,13.83
2022-10-12T16:24:33.498Z,13.92
2022-10-12T16:25:43.565Z,13.79
2022-10-12T16:28:10.170Z,13.88
2022-10-12T16:30:34.491Z,13.81
2022-10-12T16:31:44.183Z,13.67
2022-10-12T16:32:53.508Z,13.66
2022-10-12T16:34:02.806Z,13.63
2022-10-12T16:35:13.820Z,13.61
2022-10-12T16:36:23.712Z,13.62
2022-10-12T16:38:49.258Z,13.74
2022-10-12T16:41:19.130Z,13.77
2022-10-12T16:42:29.021Z,13.67
2022-10-12T16:44:53.932Z,13.75
2022-10-12T16:46:03.924Z,13.64
2022-10-12T16:47:19.072Z,13.67
2022-10-12T16:49:43.202Z,13.78
2022-10-12T16:52:07.254Z,13.77
2022-10-12T16:54:31.285Z,13.77
2022-10-12T16:56:55.906Z,13.78
2022-10-12T16:59:19.544Z,13.76
2022-10-12T17:01:44.260Z,13.74
2022-10-12T17:02:57.286Z,13.64
2022-10-12T17:05:21.295Z,13.74
2022-10-12T17:06:31.664Z,13.62
2022-10-12T17:07:40.275Z,13.61
2022-10-12T17:08:49.041Z,13.61
2022-10-12T17:11:16.616Z,13.69
2022-10-12T17:12:26.152Z,13.56
2022-10-12T17:13:38.299Z,13.56
2022-10-12T17:16:24.617Z,13.58
2022-10-12T17:17:33.208Z,13.46
2022-10-12T17:19:57.599Z,13.52
2022-10-12T17:22:23.062Z,13.43
2022-10-12T17:24:48.981Z,13.44
2022-10-12T17:27:17.533Z,13.37
2022-10-12T17:28:27.717Z,13.24
2022-10-12T17:29:40.013Z,13.20
2022-10-12T17:30:50.217Z,13.18
2022-10-12T17:32:00.860Z,13.16
2022-10-12T17:34:38.942Z,13.28
2022-10-12T17:37:13.036Z,13.27
2022-10-12T17:38:22.630Z,13.15
2022-10-12T17:40:51.367Z,13.18
2022-10-12T17:42:01.203Z,13.08
2022-10-12T17:43:11.004Z,13.09
2022-10-12T17:44:20.570Z,13.09
2022-10-12T17:45:29.156Z,13.09
2022-10-12T17:47:57.846Z,13.17
2022-10-12T17:49:09.497Z,13.02
2022-10-12T17:50:18.195Z,12.97
2022-10-12T17:51:27.338Z,12.95
2022-10-12T17:53:55.823Z,13.02
2022-10-12T17:55:09.434Z,12.90
2022-10-12T17:57:33.778Z,12.96
2022-10-12T17:58:43.402Z,12.84
2022-10-12T17:59:55.390Z,12.77
2022-10-12T18:01:16.605Z,12.78
2022-10-12T18:03:44.205Z,12.87
2022-10-12T18:04:52.917Z,12.77
2022-10-12T18:07:22.473Z,12.83
2022-10-12T18:08:31.160Z,12.74
2022-10-12T18:11:01.830Z,12.84
2022-10-12T18:12:12.318Z,12.73
2022-10-12T18:13:22.044Z,12.70
2022-10-12T18:14:31.236Z,12.71
2022-10-12T18:15:43.858Z,12.68
2022-10-12T18:18:14.274Z,12.72
2022-10-12T18:19:20.963Z,12.59
2022-10-12T18:21:44.901Z,12.70
2022-10-12T18:22:53.622Z,12.60
2022-10-12T18:24:06.940Z,12.60
2022-10-12T18:25:17.292Z,12.60
2022-10-12T18:27:43.076Z,12.67
2022-10-12T18:28:55.771Z,12.56
2022-10-12T18:30:06.085Z,12.55
2022-10-12T18:31:22.834Z,12.51
2022-10-12T18:33:47.562Z,12.62
2022-10-12T18:36:12.121Z,12.60
2022-10-12T18:37:20.757Z,12.48
2022-10-12T18:38:29.579Z,12.46
2022-10-12T18:39:40.737Z,12.46
2022-10-12T18:40:49.449Z,12.44
2022-10-12T18:41:58.538Z,12.44
2022-10-12T18:45:50.474Z,12.50
2022-10-12T18:48:16.332Z,12.51
2022-10-12T18:50:40.222Z,12.48
2022-10-12T18:51:50.725Z,12.37
2022-10-12T18:52:59.305Z,12.37
2022-10-12T18:54:08.402Z,12.38
2022-10-12T18:56:35.775Z,12.43
2022-10-12T18:59:01.754Z,12.45
2022-10-12T19:01:27.920Z,12.47
2022-10-12T19:02:37.712Z,12.39
2022-10-12T19:03:48.307Z,12.36
2022-10-12T19:04:57.134Z,12.38
2022-10-12T19:07:25.867Z,12.47
2022-10-12T19:08:36.065Z,12.36
2022-10-12T19:09:44.650Z,12.35
2022-10-12T19:10:53.335Z,12.36
2022-10-12T19:12:18.264Z,12.36
2022-10-12T19:14:43.077Z,12.44
2022-10-12T19:17:07.304Z,12.46
2022-10-12T19:18:18.222Z,12.36
2022-10-12T19:20:42.577Z,12.51
2022-10-12T19:21:54.109Z,12.40
2022-10-12T19:23:03.348Z,12.39
2022-10-12T19:24:14.442Z,12.39
2022-10-12T19:26:40.217Z,12.45
2022-10-12T19:27:49.135Z,12.34
2022-10-12T19:30:13.793Z,12.41
2022-10-12T19:32:41.171Z,12.42
2022-10-12T19:35:07.425Z,12.39
2022-10-12T19:36:22.877Z,12.27
2022-10-12T19:37:32.406Z,12.25
2022-10-12T19:39:58.898Z,12.38
2022-10-12T19:41:09.881Z,12.23
2022-10-12T19:43:35.476Z,12.34
2022-10-12T19:46:08.153Z,12.28
2022-10-12T19:47:16.897Z,12.14
2022-10-12T19:48:27.975Z,12.09
2022-10-12T19:51:02.792Z,12.14
2022-10-12T19:53:26.871Z,12.12
2022-10-12T19:55:50.534Z,12.10
2022-10-12T19:56:59.946Z,11.98
2022-10-12T19:58:10.274Z,11.93
2022-10-12T19:59:18.958Z,11.91
2022-10-12T20:01:45.116Z,12.00
2022-10-12T20:04:12.399Z,12.04
2022-10-12T20:05:21.262Z,11.93
2022-10-12T20:06:31.541Z,11.90
2022-10-12T20:08:57.589Z,12.00
2022-10-12T20:10:08.834Z,11.90
2022-10-12T20:11:24.531Z,11.91
2022-10-12T20:12:33.461Z,11.89
2022-10-12T20:14:58.521Z,12.04
2022-10-12T20:16:09.350Z,11.94
2022-10-12T20:17:17.743Z,11.97
2022-10-12T20:19:43.315Z,12.08
2022-10-12T20:22:09.504Z,12.07
2022-10-12T20:23:19.275Z,11.98
2022-10-12T20:24:28.461Z,11.93
2022-10-12T20:25:44.785Z,11.92
2022-10-12T20:26:54.344Z,11.93
2022-10-12T20:28:04.048Z,11.94
2022-10-12T20:30:29.517Z,12.05
2022-10-12T20:31:38.887Z,11.90
2022-10-12T20:32:53.154Z,11.89
2022-10-12T20:33:59.683Z,11.90
2022-10-12T20:35:08.676Z,11.90
2022-10-12T20:37:39.432Z,11.92
2022-10-12T20:38:48.721Z,11.81
2022-10-12T20:39:58.182Z,11.80
2022-10-12T20:41:12.891Z,11.78
2022-10-12T20:43:40.132Z,11.86
2022-10-12T20:44:50.597Z,11.75
2022-10-12T20:46:04.691Z,11.72
2022-10-12T20:47:13.791Z,11.69
2022-10-12T20:48:22.815Z,11.67
2022-10-12T20:49:31.693Z,11.67
2022-10-12T20:50:41.321Z,11.65
2022-10-12T20:53:16.598Z,11.65
2022-10-12T20:54:26.079Z,11.66
2022-10-12T20:55:35.152Z,11.65
2022-10-12T20:58:03.486Z,11.75
2022-10-12T21:00:26.988Z,11.74
2022-10-12T21:01:37.949Z,11.64
2022-10-12T21:04:02.603Z,11.72
2022-10-12T21:06:27.917Z,11.65
2022-10-12T21:08:55.671Z,11.64
2022-10-12T21:10:07.113Z,11.53
2022-10-12T21:12:38.179Z,11.62
2022-10-12T21:15:04.935Z,11.59
2022-10-12T21:17:33.839Z,11.55
2022-10-12T21:19:59.052Z,11.55
2022-10-12T21:21:18.373Z,11.45
2022-10-12T21:22:27.806Z,11.46
2022-10-12T21:24:53.726Z,11.55
2022-10-12T21:27:28.033Z,11.54
2022-10-12T21:29:53.040Z,11.53
2022-10-12T21:32:19.150Z,11.52
2022-10-12T21:33:28.608Z,11.41
2022-10-12T21:35:53.277Z,11.53
2022-10-12T21:38:18.722Z,11.45
2022-10-12T21:40:42.516Z,11.39
2022-10-12T21:41:52.064Z,11.29
2022-10-12T21:43:01.442Z,11.28
2022-10-12T21:44:13.201Z,11.26
2022-10-12T21:45:22.343Z,11.24
2022-10-12T21:46:34.410Z,11.21
2022-10-12T21:47:44.176Z,11.23
2022-10-12T21:50:11.017Z,11.34
2022-10-12T21:52:36.618Z,11.34
2022-10-12T21:55:01.639Z,11.34
2022-10-12T21:57:31.956Z,11.26
2022-10-12T21:58:41.337Z,11.13
2022-10-12T21:59:50.298Z,11.15
2022-10-12T22:02:22.862Z,11.27
2022-10-12T22:03:32.384Z,11.17
2022-10-12T22:04:43.361Z,11.16
2022-10-12T22:07:08.022Z,11.31
2022-10-12T22:09:31.976Z,11.27
2022-10-12T22:10:41.248Z,11.16
2022-10-12T22:11:51.695Z,11.19
2022-10-12T22:13:00.810Z,11.22
2022-10-12T22:14:18.117Z,11.23
2022-10-12T22:16:43.709Z,11.33
2022-10-12T22:17:52.296Z,11.21
2022-10-12T22:20:20.508Z,11.24
2022-10-12T22:21:37.517Z,11.13
2022-10-12T22:22:46.089Z,11.14
2022-10-12T22:25:10.402Z,11.23
2022-10-12T22:26:22.944Z,11.13
2022-10-12T22:27:39.709Z,11.14
2022-10-12T22:30:06.255Z,11.21
2022-10-12T22:31:21.239Z,11.11
2022-10-12T22:32:37.750Z,11.11
2022-10-12T22:33:47.625Z,11.13
2022-10-12T22:34:57.435Z,11.13
2022-10-12T22:37:23.677Z,11.20
2022-10-12T22:38:38.745Z,11.06
2022-10-12T22:41:14.308Z,11.12
2022-10-12T22:42:31.932Z,11.00
2022-10-12T22:43:41.242Z,11.00
2022-10-12T22:44:50.320Z,11.03
2022-10-12T22:47:14.878Z,11.14
2022-10-12T22:48:25.199Z,11.04
2022-10-12T22:49:34.177Z,11.05
2022-10-12T22:52:00.553Z,11.15
2022-10-12T22:54:25.486Z,11.20
2022-10-12T22:55:34.419Z,11.12
2022-10-12T22:56:44.400Z,11.13
2022-10-12T22:59:13.115Z,11.23
2022-10-12T23:00:22.052Z,11.12
2022-10-12T23:01:33.067Z,11.11
2022-10-12T23:02:42.998Z,11.12
2022-10-12T23:04:00.911Z,11.14
2022-10-12T23:05:10.646Z,11.16
2022-10-12T23:07:35.969Z,11.23
2022-10-12T23:08:45.545Z,11.14
2022-10-12T23:09:54.576Z,11.14
2022-10-12T23:11:13.778Z,11.17
2022-10-12T23:12:24.904Z,11.17
2022-10-12T23:14:51.208Z,11.25
2022-10-12T23:16:06.301Z,11.16
2022-10-12T23:17:16.081Z,11.15
2022-10-12T23:18:25.135Z,11.13
2022-10-12T23:20:58.581Z,11.23
2022-10-12T23:22:07.646Z,11.13
2022-10-12T23:23:16.248Z,11.15
2022-10-12T23:25:45.217Z,11.24
2022-10-12T23:28:08.897Z,11.25
2022-10-12T23:30:34.545Z,11.26
2022-10-12T23:31:43.750Z,11.16
2022-10-12T23:32:55.359Z,11.16
2022-10-12T23:34:06.354Z,11.16
2022-10-12T23:35:21.416Z,11.15
2022-10-12T23:36:31.179Z,11.15
2022-10-12T23:38:59.001Z,11.28
2022-10-12T23:41:24.459Z,11.29
2022-10-12T23:43:49.365Z,11.28
2022-10-12T23:44:59.653Z,11.19
2022-10-12T23:47:27.104Z,11.33
2022-10-12T23:48:36.801Z,11.23
2022-10-12T23:49:51.508Z,11.22
2022-10-12T23:51:02.024Z,11.23
2022-10-12T23:52:11.663Z,11.22
2022-10-12T23:54:38.026Z,11.34
2022-10-12T23:55:47.047Z,11.24
2022-10-12T23:56:58.699Z,11.21
2022-10-12T23:58:07.932Z,11.21
